<?xml version="1.0" encoding="UTF-8" standalone="no" ?>
<gpx xmlns="http://www.topografix.com/GPX/1/1" xmlns:xsi="http://www.w3.org/2001/XMLSchema-instance" xsi:schemaLocation="http://www.topografix.com/GPX/1/1 http://www.topografix.com/GPX/1/1/gpx.xsd" version="1.1" creator="VisuGPX - https://www.visugpx.com">
  <metadata>
    <name>MN-FRONTENAS-2</name>
  </metadata>
  <trk>
    <name><![CDATA[MN-FRONTENAS]]></name>
    <trkseg>
      <trkpt lat="45.92534" lon="4.61941">
        <ele>365.13764483961</ele>
        <time>2021-10-06T10:23:04.000Z</time>
      </trkpt>
      <trkpt lat="45.9253" lon="4.61948">
        <ele>364.97014658351</ele>
        <time>2021-10-06T10:23:04.008Z</time>
      </trkpt>
      <trkpt lat="45.92544" lon="4.61978">
        <ele>365.27412837862</ele>
        <time>2021-10-06T10:23:04.050Z</time>
      </trkpt>
      <trkpt lat="45.92562" lon="4.62015">
        <ele>365.58583328487</ele>
        <time>2021-10-06T10:23:04.134Z</time>
      </trkpt>
      <trkpt lat="45.92564" lon="4.62026">
        <ele>365.50726508465</ele>
        <time>2021-10-06T10:23:04.229Z</time>
      </trkpt>
      <trkpt lat="45.92556" lon="4.62051">
        <ele>365.00121993878</ele>
        <time>2021-10-06T10:23:04.349Z</time>
      </trkpt>
      <trkpt lat="45.92546" lon="4.62075">
        <ele>364.17932997229</ele>
        <time>2021-10-06T10:23:04.495Z</time>
      </trkpt>
      <trkpt lat="45.92534" lon="4.62094">
        <ele>363.13504802581</ele>
        <time>2021-10-06T10:23:04.665Z</time>
      </trkpt>
      <trkpt lat="45.92514" lon="4.62125">
        <ele>361.96428487814</ele>
        <time>2021-10-06T10:23:04.874Z</time>
      </trkpt>
      <trkpt lat="45.92492" lon="4.62176">
        <ele>360.68293990924</ele>
        <time>2021-10-06T10:23:05.139Z</time>
      </trkpt>
      <trkpt lat="45.9248" lon="4.62214">
        <ele>358.96917717424</ele>
        <time>2021-10-06T10:23:05.443Z</time>
      </trkpt>
      <trkpt lat="45.92468" lon="4.62249">
        <ele>357.39893650015</ele>
        <time>2021-10-06T10:23:05.783Z</time>
      </trkpt>
      <trkpt lat="45.92455" lon="4.62276">
        <ele>355.95423271445</ele>
        <time>2021-10-06T10:23:06.154Z</time>
      </trkpt>
      <trkpt lat="45.92423" lon="4.62329">
        <ele>354.1627369104</ele>
        <time>2021-10-06T10:23:06.590Z</time>
      </trkpt>
      <trkpt lat="45.92402" lon="4.62351">
        <ele>352.44643013021</ele>
        <time>2021-10-06T10:23:07.061Z</time>
      </trkpt>
      <trkpt lat="45.92374" lon="4.62381">
        <ele>350.76415064474</ele>
        <time>2021-10-06T10:23:07.578Z</time>
      </trkpt>
      <trkpt lat="45.92358" lon="4.62395">
        <ele>349.24119406046</ele>
        <time>2021-10-06T10:23:08.120Z</time>
      </trkpt>
      <trkpt lat="45.92344" lon="4.62405">
        <ele>347.83381808021</ele>
        <time>2021-10-06T10:23:08.683Z</time>
      </trkpt>
      <trkpt lat="45.92329" lon="4.62418">
        <ele>346.43022472802</ele>
        <time>2021-10-06T10:23:09.270Z</time>
      </trkpt>
      <trkpt lat="45.92296" lon="4.6246">
        <ele>345.23202260232</ele>
        <time>2021-10-06T10:23:09.915Z</time>
      </trkpt>
      <trkpt lat="45.92268" lon="4.62492">
        <ele>343.91550626496</ele>
        <time>2021-10-06T10:23:10.608Z</time>
      </trkpt>
      <trkpt lat="45.92229" lon="4.62565">
        <ele>342.47658362878</ele>
        <time>2021-10-06T10:23:11.387Z</time>
      </trkpt>
      <trkpt lat="45.92211" lon="4.62593">
        <ele>341.59607471696</ele>
        <time>2021-10-06T10:23:12.201Z</time>
      </trkpt>
      <trkpt lat="45.92186" lon="4.62623">
        <ele>340.63900368855</ele>
        <time>2021-10-06T10:23:13.059Z</time>
      </trkpt>
      <trkpt lat="45.92174" lon="4.62636">
        <ele>339.87276168389</ele>
        <time>2021-10-06T10:23:13.937Z</time>
      </trkpt>
      <trkpt lat="45.92144" lon="4.6266">
        <ele>339.01541999987</ele>
        <time>2021-10-06T10:23:14.861Z</time>
      </trkpt>
      <trkpt lat="45.92076" lon="4.62716">
        <ele>338.12229834533</ele>
        <time>2021-10-06T10:23:15.889Z</time>
      </trkpt>
      <trkpt lat="45.92045" lon="4.62746">
        <ele>337.31266744114</ele>
        <time>2021-10-06T10:23:16.967Z</time>
      </trkpt>
      <trkpt lat="45.92028" lon="4.62766">
        <ele>336.60261977233</ele>
        <time>2021-10-06T10:23:18.075Z</time>
      </trkpt>
      <trkpt lat="45.91993" lon="4.62809">
        <ele>335.88956286877</ele>
        <time>2021-10-06T10:23:19.244Z</time>
      </trkpt>
      <trkpt lat="45.91969" lon="4.62856">
        <ele>335.28245224231</ele>
        <time>2021-10-06T10:23:20.467Z</time>
      </trkpt>
      <trkpt lat="45.9195" lon="4.62878">
        <ele>334.70996280044</ele>
        <time>2021-10-06T10:23:21.723Z</time>
      </trkpt>
      <trkpt lat="45.91935" lon="4.62891">
        <ele>334.02401091865</ele>
        <time>2021-10-06T10:23:23.002Z</time>
      </trkpt>
      <trkpt lat="45.91905" lon="4.6291">
        <ele>333.26248710004</ele>
        <time>2021-10-06T10:23:24.325Z</time>
      </trkpt>
      <trkpt lat="45.91878" lon="4.62934">
        <ele>332.55832785622</ele>
        <time>2021-10-06T10:23:25.690Z</time>
      </trkpt>
      <trkpt lat="45.91855" lon="4.62981">
        <ele>331.7554050969</ele>
        <time>2021-10-06T10:23:27.109Z</time>
      </trkpt>
      <trkpt lat="45.91826" lon="4.63032">
        <ele>330.91068209974</ele>
        <time>2021-10-06T10:23:28.589Z</time>
      </trkpt>
      <trkpt lat="45.91808" lon="4.63062">
        <ele>329.9710265793</ele>
        <time>2021-10-06T10:23:30.106Z</time>
      </trkpt>
      <trkpt lat="45.91791" lon="4.63096">
        <ele>328.96321321155</ele>
        <time>2021-10-06T10:23:31.662Z</time>
      </trkpt>
      <trkpt lat="45.91768" lon="4.63134">
        <ele>328.06310272834</ele>
        <time>2021-10-06T10:23:33.265Z</time>
      </trkpt>
      <trkpt lat="45.91744" lon="4.63162">
        <ele>327.09121769651</ele>
        <time>2021-10-06T10:23:34.909Z</time>
      </trkpt>
      <trkpt lat="45.91723" lon="4.63183">
        <ele>326.04112857587</ele>
        <time>2021-10-06T10:23:36.587Z</time>
      </trkpt>
      <trkpt lat="45.91699" lon="4.63198">
        <ele>325.016764852</ele>
        <time>2021-10-06T10:23:38.300Z</time>
      </trkpt>
      <trkpt lat="45.91683" lon="4.63215">
        <ele>324.01948321685</ele>
        <time>2021-10-06T10:23:40.040Z</time>
      </trkpt>
      <trkpt lat="45.91672" lon="4.63235">
        <ele>323.00024767431</ele>
        <time>2021-10-06T10:23:41.803Z</time>
      </trkpt>
      <trkpt lat="45.9166" lon="4.63258">
        <ele>321.98577450716</ele>
        <time>2021-10-06T10:23:43.593Z</time>
      </trkpt>
      <trkpt lat="45.91641" lon="4.63291">
        <ele>320.91925169247</ele>
        <time>2021-10-06T10:23:45.423Z</time>
      </trkpt>
      <trkpt lat="45.9161" lon="4.63324">
        <ele>320.01669025709</ele>
        <time>2021-10-06T10:23:47.304Z</time>
      </trkpt>
      <trkpt lat="45.91594" lon="4.63336">
        <ele>319.20388680517</ele>
        <time>2021-10-06T10:23:49.209Z</time>
      </trkpt>
      <trkpt lat="45.91578" lon="4.63345">
        <ele>318.27079358369</ele>
        <time>2021-10-06T10:23:51.137Z</time>
      </trkpt>
      <trkpt lat="45.91559" lon="4.63353">
        <ele>317.3422468224</ele>
        <time>2021-10-06T10:23:53.092Z</time>
      </trkpt>
      <trkpt lat="45.91505" lon="4.63354">
        <ele>316.35165316641</ele>
        <time>2021-10-06T10:23:55.119Z</time>
      </trkpt>
      <trkpt lat="45.91386" lon="4.63351">
        <ele>315.30037870774</ele>
        <time>2021-10-06T10:23:57.304Z</time>
      </trkpt>
      <trkpt lat="45.91373" lon="4.63352">
        <ele>314.4729598707</ele>
        <time>2021-10-06T10:23:59.507Z</time>
      </trkpt>
      <trkpt lat="45.91349" lon="4.63359">
        <ele>313.5837749717</ele>
        <time>2021-10-06T10:24:01.743Z</time>
      </trkpt>
      <trkpt lat="45.91328" lon="4.63373">
        <ele>312.70459529676</ele>
        <time>2021-10-06T10:24:04.009Z</time>
      </trkpt>
      <trkpt lat="45.91316" lon="4.63385">
        <ele>311.94142120841</ele>
        <time>2021-10-06T10:24:06.295Z</time>
      </trkpt>
      <trkpt lat="45.91298" lon="4.63417">
        <ele>311.23201770635</ele>
        <time>2021-10-06T10:24:08.619Z</time>
      </trkpt>
      <trkpt lat="45.91279" lon="4.6346">
        <ele>310.90632174272</ele>
        <time>2021-10-06T10:24:10.991Z</time>
      </trkpt>
      <trkpt lat="45.91266" lon="4.63499">
        <ele>310.85053151951</ele>
        <time>2021-10-06T10:24:13.403Z</time>
      </trkpt>
      <trkpt lat="45.91262" lon="4.63521">
        <ele>310.79787442464</ele>
        <time>2021-10-06T10:24:15.836Z</time>
      </trkpt>
      <trkpt lat="45.91257" lon="4.63575">
        <ele>310.86966618765</ele>
        <time>2021-10-06T10:24:18.320Z</time>
      </trkpt>
      <trkpt lat="45.91258" lon="4.63589">
        <ele>310.95951406491</ele>
        <time>2021-10-06T10:24:20.817Z</time>
      </trkpt>
      <trkpt lat="45.9126" lon="4.63601">
        <ele>311.08374472398</ele>
        <time>2021-10-06T10:24:23.325Z</time>
      </trkpt>
      <trkpt lat="45.91266" lon="4.63612">
        <ele>311.27279287204</ele>
        <time>2021-10-06T10:24:25.846Z</time>
      </trkpt>
      <trkpt lat="45.91272" lon="4.63619">
        <ele>311.50185130406</ele>
        <time>2021-10-06T10:24:28.378Z</time>
      </trkpt>
      <trkpt lat="45.91284" lon="4.63626">
        <ele>311.78500775433</ele>
        <time>2021-10-06T10:24:30.927Z</time>
      </trkpt>
      <trkpt lat="45.91372" lon="4.63651">
        <ele>312.08349819077</ele>
        <time>2021-10-06T10:24:33.596Z</time>
      </trkpt>
      <trkpt lat="45.91475" lon="4.63673">
        <ele>312.3044428624</ele>
        <time>2021-10-06T10:24:36.403Z</time>
      </trkpt>
      <trkpt lat="45.91485" lon="4.63676">
        <ele>312.61064790534</ele>
        <time>2021-10-06T10:24:39.224Z</time>
      </trkpt>
      <trkpt lat="45.91498" lon="4.63686">
        <ele>312.86817407485</ele>
        <time>2021-10-06T10:24:42.065Z</time>
      </trkpt>
      <trkpt lat="45.91501" lon="4.6368">
        <ele>313.24843836767</ele>
        <time>2021-10-06T10:24:44.913Z</time>
      </trkpt>
      <trkpt lat="45.91501" lon="4.6368">
        <ele>313.99989663075</ele>
        <time>2021-10-06T10:24:47.761Z</time>
      </trkpt>
      <trkpt lat="45.91544" lon="4.63823">
        <ele>314.83945417086</ele>
        <time>2021-10-06T10:24:50.754Z</time>
      </trkpt>
      <trkpt lat="45.91555" lon="4.63928">
        <ele>316.09166901695</ele>
        <time>2021-10-06T10:24:53.846Z</time>
      </trkpt>
      <trkpt lat="45.91582" lon="4.63973">
        <ele>316.57752108758</ele>
        <time>2021-10-06T10:24:56.993Z</time>
      </trkpt>
      <trkpt lat="45.91585" lon="4.63978">
        <ele>317.02602399161</ele>
        <time>2021-10-06T10:25:00.146Z</time>
      </trkpt>
      <trkpt lat="45.91679" lon="4.64016">
        <ele>317.17236504666</ele>
        <time>2021-10-06T10:25:03.429Z</time>
      </trkpt>
      <trkpt lat="45.91702" lon="4.64021">
        <ele>317.42496792791</ele>
        <time>2021-10-06T10:25:06.743Z</time>
      </trkpt>
      <trkpt lat="45.91729" lon="4.64032">
        <ele>317.67680666156</ele>
        <time>2021-10-06T10:25:10.095Z</time>
      </trkpt>
      <trkpt lat="45.91786" lon="4.64049">
        <ele>318.03194424412</ele>
        <time>2021-10-06T10:25:13.524Z</time>
      </trkpt>
      <trkpt lat="45.91793" lon="4.64045">
        <ele>318.1146250966</ele>
        <time>2021-10-06T10:25:16.963Z</time>
      </trkpt>
      <trkpt lat="45.91805" lon="4.64026">
        <ele>318.0913174049</ele>
        <time>2021-10-06T10:25:20.426Z</time>
      </trkpt>
      <trkpt lat="45.91843" lon="4.63937">
        <ele>317.95536587276</ele>
        <time>2021-10-06T10:25:23.986Z</time>
      </trkpt>
      <trkpt lat="45.91857" lon="4.63918">
        <ele>317.7991579424</ele>
        <time>2021-10-06T10:25:27.572Z</time>
      </trkpt>
      <trkpt lat="45.91864" lon="4.63915">
        <ele>317.64286787552</ele>
        <time>2021-10-06T10:25:31.168Z</time>
      </trkpt>
      <trkpt lat="45.91873" lon="4.63921">
        <ele>317.50137862913</ele>
        <time>2021-10-06T10:25:34.777Z</time>
      </trkpt>
      <trkpt lat="45.9188" lon="4.6393">
        <ele>317.45921287278</ele>
        <time>2021-10-06T10:25:38.399Z</time>
      </trkpt>
      <trkpt lat="45.91922" lon="4.64002">
        <ele>317.53456285554</ele>
        <time>2021-10-06T10:25:42.108Z</time>
      </trkpt>
      <trkpt lat="45.91949" lon="4.64035">
        <ele>317.57247094088</ele>
        <time>2021-10-06T10:25:45.864Z</time>
      </trkpt>
      <trkpt lat="45.91971" lon="4.64067">
        <ele>317.64473534243</ele>
        <time>2021-10-06T10:25:49.662Z</time>
      </trkpt>
      <trkpt lat="45.91977" lon="4.6407">
        <ele>317.87556677623</ele>
        <time>2021-10-06T10:25:53.469Z</time>
      </trkpt>
      <trkpt lat="45.91983" lon="4.6407">
        <ele>318.23542224868</ele>
        <time>2021-10-06T10:25:57.284Z</time>
      </trkpt>
      <trkpt lat="45.91996" lon="4.64061">
        <ele>318.77340475945</ele>
        <time>2021-10-06T10:26:01.118Z</time>
      </trkpt>
      <trkpt lat="45.92017" lon="4.6404">
        <ele>319.476058662</ele>
        <time>2021-10-06T10:26:04.986Z</time>
      </trkpt>
      <trkpt lat="45.92064" lon="4.63983">
        <ele>320.15684531995</ele>
        <time>2021-10-06T10:26:08.936Z</time>
      </trkpt>
      <trkpt lat="45.92091" lon="4.63957">
        <ele>320.95547772445</ele>
        <time>2021-10-06T10:26:12.930Z</time>
      </trkpt>
      <trkpt lat="45.92178" lon="4.63855">
        <ele>321.80315037488</ele>
        <time>2021-10-06T10:26:17.073Z</time>
      </trkpt>
      <trkpt lat="45.9227" lon="4.63742">
        <ele>322.53952454336</ele>
        <time>2021-10-06T10:26:21.378Z</time>
      </trkpt>
      <trkpt lat="45.9228" lon="4.63734">
        <ele>323.22380554473</ele>
        <time>2021-10-06T10:26:25.698Z</time>
      </trkpt>
      <trkpt lat="45.92295" lon="4.63725">
        <ele>323.80425349199</ele>
        <time>2021-10-06T10:26:30.040Z</time>
      </trkpt>
      <trkpt lat="45.92306" lon="4.63723">
        <ele>324.21483833093</ele>
        <time>2021-10-06T10:26:34.397Z</time>
      </trkpt>
      <trkpt lat="45.92325" lon="4.63721">
        <ele>324.51798980807</ele>
        <time>2021-10-06T10:26:38.779Z</time>
      </trkpt>
      <trkpt lat="45.92332" lon="4.63724">
        <ele>324.65633269476</ele>
        <time>2021-10-06T10:26:43.171Z</time>
      </trkpt>
      <trkpt lat="45.92333" lon="4.63731">
        <ele>324.63149976229</ele>
        <time>2021-10-06T10:26:47.570Z</time>
      </trkpt>
      <trkpt lat="45.92312" lon="4.63788">
        <ele>324.31941086183</ele>
        <time>2021-10-06T10:26:52.029Z</time>
      </trkpt>
      <trkpt lat="45.92303" lon="4.63854">
        <ele>324.11848105476</ele>
        <time>2021-10-06T10:26:56.550Z</time>
      </trkpt>
      <trkpt lat="45.923" lon="4.63872">
        <ele>323.85836700636</ele>
        <time>2021-10-06T10:27:01.088Z</time>
      </trkpt>
      <trkpt lat="45.92294" lon="4.63894">
        <ele>323.52697887404</ele>
        <time>2021-10-06T10:27:05.648Z</time>
      </trkpt>
      <trkpt lat="45.92286" lon="4.63908">
        <ele>323.07856444444</ele>
        <time>2021-10-06T10:27:10.225Z</time>
      </trkpt>
      <trkpt lat="45.92243" lon="4.63971">
        <ele>322.35946339026</ele>
        <time>2021-10-06T10:27:14.884Z</time>
      </trkpt>
      <trkpt lat="45.92227" lon="4.63999">
        <ele>321.75466163875</ele>
        <time>2021-10-06T10:27:19.577Z</time>
      </trkpt>
      <trkpt lat="45.92204" lon="4.6406">
        <ele>320.95481813616</ele>
        <time>2021-10-06T10:27:24.335Z</time>
      </trkpt>
      <trkpt lat="45.9219" lon="4.64088">
        <ele>320.12728572508</ele>
        <time>2021-10-06T10:27:29.125Z</time>
      </trkpt>
      <trkpt lat="45.9216" lon="4.64179">
        <ele>319.23829738249</ele>
        <time>2021-10-06T10:27:34.008Z</time>
      </trkpt>
      <trkpt lat="45.92121" lon="4.64262">
        <ele>318.48262617231</ele>
        <time>2021-10-06T10:27:38.984Z</time>
      </trkpt>
      <trkpt lat="45.92099" lon="4.64302">
        <ele>317.50423968093</ele>
        <time>2021-10-06T10:27:44.008Z</time>
      </trkpt>
      <trkpt lat="45.92087" lon="4.64331">
        <ele>316.44335901578</ele>
        <time>2021-10-06T10:27:49.063Z</time>
      </trkpt>
      <trkpt lat="45.92064" lon="4.64401">
        <ele>315.05431129987</ele>
        <time>2021-10-06T10:27:54.190Z</time>
      </trkpt>
      <trkpt lat="45.92051" lon="4.64453">
        <ele>314.11993244597</ele>
        <time>2021-10-06T10:27:59.369Z</time>
      </trkpt>
      <trkpt lat="45.92051" lon="4.64453">
        <ele>313.08954245034</ele>
        <time>2021-10-06T10:28:04.548Z</time>
      </trkpt>
      <trkpt lat="45.92036" lon="4.64503">
        <ele>312.21196099368</ele>
        <time>2021-10-06T10:28:09.778Z</time>
      </trkpt>
      <trkpt lat="45.92013" lon="4.64604">
        <ele>310.88578329934</ele>
        <time>2021-10-06T10:28:15.106Z</time>
      </trkpt>
      <trkpt lat="45.91985" lon="4.64684">
        <ele>309.69586993486</ele>
        <time>2021-10-06T10:28:20.518Z</time>
      </trkpt>
      <trkpt lat="45.91969" lon="4.64722">
        <ele>308.70111494815</ele>
        <time>2021-10-06T10:28:25.971Z</time>
      </trkpt>
      <trkpt lat="45.91964" lon="4.64752">
        <ele>307.79944298664</ele>
        <time>2021-10-06T10:28:31.453Z</time>
      </trkpt>
      <trkpt lat="45.91961" lon="4.6476">
        <ele>307.04868846372</ele>
        <time>2021-10-06T10:28:36.943Z</time>
      </trkpt>
      <trkpt lat="45.91929" lon="4.64808">
        <ele>306.33727132874</ele>
        <time>2021-10-06T10:28:42.495Z</time>
      </trkpt>
      <trkpt lat="45.9192" lon="4.64813">
        <ele>305.94807316839</ele>
        <time>2021-10-06T10:28:48.060Z</time>
      </trkpt>
      <trkpt lat="45.91912" lon="4.64824">
        <ele>305.70161818011</ele>
        <time>2021-10-06T10:28:53.640Z</time>
      </trkpt>
      <trkpt lat="45.91903" lon="4.6483">
        <ele>305.56690803825</ele>
        <time>2021-10-06T10:28:59.233Z</time>
      </trkpt>
      <trkpt lat="45.91892" lon="4.64865">
        <ele>305.48103610749</ele>
        <time>2021-10-06T10:29:04.862Z</time>
      </trkpt>
      <trkpt lat="45.91875" lon="4.64899">
        <ele>305.33280009431</ele>
        <time>2021-10-06T10:29:10.530Z</time>
      </trkpt>
      <trkpt lat="45.91872" lon="4.64904">
        <ele>305.22436962193</ele>
        <time>2021-10-06T10:29:16.204Z</time>
      </trkpt>
      <trkpt lat="45.91869" lon="4.649">
        <ele>305.08109114914</ele>
        <time>2021-10-06T10:29:21.883Z</time>
      </trkpt>
      <trkpt lat="45.91866" lon="4.649">
        <ele>304.82814112834</ele>
        <time>2021-10-06T10:29:27.566Z</time>
      </trkpt>
      <trkpt lat="45.91849" lon="4.64913">
        <ele>304.36930345653</ele>
        <time>2021-10-06T10:29:33.275Z</time>
      </trkpt>
      <trkpt lat="45.91842" lon="4.64914">
        <ele>303.76080725532</ele>
        <time>2021-10-06T10:29:38.993Z</time>
      </trkpt>
      <trkpt lat="45.91835" lon="4.64934">
        <ele>302.9403361439</ele>
        <time>2021-10-06T10:29:44.732Z</time>
      </trkpt>
      <trkpt lat="45.91836" lon="4.64929">
        <ele>302.01477376198</ele>
        <time>2021-10-06T10:29:50.476Z</time>
      </trkpt>
      <trkpt lat="45.91833" lon="4.64934">
        <ele>300.81531546432</ele>
        <time>2021-10-06T10:29:56.226Z</time>
      </trkpt>
      <trkpt lat="45.91831" lon="4.64932">
        <ele>299.41889210792</ele>
        <time>2021-10-06T10:30:01.979Z</time>
      </trkpt>
      <trkpt lat="45.91829" lon="4.64934">
        <ele>297.81617396292</ele>
        <time>2021-10-06T10:30:07.736Z</time>
      </trkpt>
      <trkpt lat="45.9182" lon="4.64921">
        <ele>296.02946539419</ele>
        <time>2021-10-06T10:30:13.510Z</time>
      </trkpt>
      <trkpt lat="45.91795" lon="4.64877">
        <ele>293.65102138066</ele>
        <time>2021-10-06T10:30:19.336Z</time>
      </trkpt>
      <trkpt lat="45.91778" lon="4.64858">
        <ele>291.72956654608</ele>
        <time>2021-10-06T10:30:25.191Z</time>
      </trkpt>
      <trkpt lat="45.91766" lon="4.64849">
        <ele>290.18224757216</ele>
        <time>2021-10-06T10:30:31.064Z</time>
      </trkpt>
      <trkpt lat="45.91762" lon="4.64852">
        <ele>289.00802916779</ele>
        <time>2021-10-06T10:30:36.943Z</time>
      </trkpt>
      <trkpt lat="45.91759" lon="4.64859">
        <ele>288.23926778518</ele>
        <time>2021-10-06T10:30:42.830Z</time>
      </trkpt>
      <trkpt lat="45.91759" lon="4.64869">
        <ele>287.89232103956</ele>
        <time>2021-10-06T10:30:48.726Z</time>
      </trkpt>
      <trkpt lat="45.91757" lon="4.64878">
        <ele>287.94487188859</ele>
        <time>2021-10-06T10:30:54.631Z</time>
      </trkpt>
      <trkpt lat="45.91756" lon="4.64911">
        <ele>288.34132553632</ele>
        <time>2021-10-06T10:31:00.567Z</time>
      </trkpt>
      <trkpt lat="45.91752" lon="4.64955">
        <ele>289.10778642343</ele>
        <time>2021-10-06T10:31:06.544Z</time>
      </trkpt>
      <trkpt lat="45.91751" lon="4.65014">
        <ele>290.07649048358</ele>
        <time>2021-10-06T10:31:12.576Z</time>
      </trkpt>
      <trkpt lat="45.91749" lon="4.65029">
        <ele>291.07521277236</ele>
        <time>2021-10-06T10:31:18.622Z</time>
      </trkpt>
      <trkpt lat="45.91742" lon="4.65053">
        <ele>292.15981785096</ele>
        <time>2021-10-06T10:31:24.693Z</time>
      </trkpt>
      <trkpt lat="45.91736" lon="4.65088">
        <ele>293.17786353152</ele>
        <time>2021-10-06T10:31:30.797Z</time>
      </trkpt>
      <trkpt lat="45.91735" lon="4.65106">
        <ele>294.09424346546</ele>
        <time>2021-10-06T10:31:36.918Z</time>
      </trkpt>
      <trkpt lat="45.91736" lon="4.65138">
        <ele>294.83357995759</ele>
        <time>2021-10-06T10:31:43.069Z</time>
      </trkpt>
      <trkpt lat="45.9174" lon="4.65144">
        <ele>295.48194882153</ele>
        <time>2021-10-06T10:31:49.227Z</time>
      </trkpt>
      <trkpt lat="45.91743" lon="4.65147">
        <ele>296.02946498371</ele>
        <time>2021-10-06T10:31:55.390Z</time>
      </trkpt>
      <trkpt lat="45.91767" lon="4.65148">
        <ele>296.53723530927</ele>
        <time>2021-10-06T10:32:01.585Z</time>
      </trkpt>
      <trkpt lat="45.91793" lon="4.65152">
        <ele>296.81239703769</ele>
        <time>2021-10-06T10:32:07.815Z</time>
      </trkpt>
      <trkpt lat="45.92014" lon="4.65223">
        <ele>297.55180381758</ele>
        <time>2021-10-06T10:32:14.347Z</time>
      </trkpt>
      <trkpt lat="45.92022" lon="4.65226">
        <ele>297.78501397792</ele>
        <time>2021-10-06T10:32:20.890Z</time>
      </trkpt>
      <trkpt lat="45.92057" lon="4.65249">
        <ele>297.81114568386</ele>
        <time>2021-10-06T10:32:27.485Z</time>
      </trkpt>
      <trkpt lat="45.92075" lon="4.65258">
        <ele>297.88843849001</ele>
        <time>2021-10-06T10:32:34.105Z</time>
      </trkpt>
      <trkpt lat="45.92148" lon="4.65279">
        <ele>298.07944133031</ele>
        <time>2021-10-06T10:32:40.824Z</time>
      </trkpt>
      <trkpt lat="45.92226" lon="4.65296">
        <ele>298.15658030497</ele>
        <time>2021-10-06T10:32:47.649Z</time>
      </trkpt>
      <trkpt lat="45.92246" lon="4.65306">
        <ele>298.27064905686</ele>
        <time>2021-10-06T10:32:54.502Z</time>
      </trkpt>
      <trkpt lat="45.92264" lon="4.65318">
        <ele>298.472799784</ele>
        <time>2021-10-06T10:33:01.381Z</time>
      </trkpt>
      <trkpt lat="45.92272" lon="4.65321">
        <ele>298.84279621331</ele>
        <time>2021-10-06T10:33:08.271Z</time>
      </trkpt>
      <trkpt lat="45.92314" lon="4.65323">
        <ele>299.44387744679</ele>
        <time>2021-10-06T10:33:15.217Z</time>
      </trkpt>
      <trkpt lat="45.92329" lon="4.6532">
        <ele>300.1316420847</ele>
        <time>2021-10-06T10:33:22.184Z</time>
      </trkpt>
      <trkpt lat="45.92387" lon="4.65298">
        <ele>301.05895978656</ele>
        <time>2021-10-06T10:33:29.231Z</time>
      </trkpt>
      <trkpt lat="45.92398" lon="4.65296">
        <ele>301.91999071295</ele>
        <time>2021-10-06T10:33:36.292Z</time>
      </trkpt>
      <trkpt lat="45.92442" lon="4.65294">
        <ele>302.98110110139</ele>
        <time>2021-10-06T10:33:43.412Z</time>
      </trkpt>
      <trkpt lat="45.92461" lon="4.65295">
        <ele>304.23507749265</ele>
        <time>2021-10-06T10:33:50.558Z</time>
      </trkpt>
      <trkpt lat="45.92485" lon="4.653">
        <ele>305.51531162229</ele>
        <time>2021-10-06T10:33:57.736Z</time>
      </trkpt>
      <trkpt lat="45.92518" lon="4.65303">
        <ele>306.68697704272</ele>
        <time>2021-10-06T10:34:04.958Z</time>
      </trkpt>
      <trkpt lat="45.92565" lon="4.65284">
        <ele>308.07875803649</ele>
        <time>2021-10-06T10:34:12.245Z</time>
      </trkpt>
      <trkpt lat="45.92584" lon="4.65283">
        <ele>309.10667154287</ele>
        <time>2021-10-06T10:34:19.558Z</time>
      </trkpt>
      <trkpt lat="45.92627" lon="4.65286">
        <ele>310.01229492951</ele>
        <time>2021-10-06T10:34:26.928Z</time>
      </trkpt>
      <trkpt lat="45.92628" lon="4.65283">
        <ele>310.69709675692</ele>
        <time>2021-10-06T10:34:34.301Z</time>
      </trkpt>
      <trkpt lat="45.92634" lon="4.6528">
        <ele>311.18853758684</ele>
        <time>2021-10-06T10:34:41.682Z</time>
      </trkpt>
      <trkpt lat="45.92629" lon="4.65271">
        <ele>311.54246653795</ele>
        <time>2021-10-06T10:34:49.074Z</time>
      </trkpt>
      <trkpt lat="45.92623" lon="4.65268">
        <ele>311.75661268426</ele>
        <time>2021-10-06T10:34:56.475Z</time>
      </trkpt>
      <trkpt lat="45.9262" lon="4.6527">
        <ele>311.83659820092</ele>
        <time>2021-10-06T10:35:03.880Z</time>
      </trkpt>
      <trkpt lat="45.92619" lon="4.65268">
        <ele>311.82219805942</ele>
        <time>2021-10-06T10:35:11.287Z</time>
      </trkpt>
      <trkpt lat="45.92614" lon="4.65274">
        <ele>311.73652448866</ele>
        <time>2021-10-06T10:35:18.703Z</time>
      </trkpt>
      <trkpt lat="45.92608" lon="4.65276">
        <ele>311.58781805304</ele>
        <time>2021-10-06T10:35:26.127Z</time>
      </trkpt>
      <trkpt lat="45.9261" lon="4.65273">
        <ele>311.44674151212</ele>
        <time>2021-10-06T10:35:33.555Z</time>
      </trkpt>
      <trkpt lat="45.9263" lon="4.65274">
        <ele>311.27565443014</ele>
        <time>2021-10-06T10:35:41.010Z</time>
      </trkpt>
      <trkpt lat="45.92626" lon="4.65273">
        <ele>311.12232147774</ele>
        <time>2021-10-06T10:35:48.470Z</time>
      </trkpt>
      <trkpt lat="45.92619" lon="4.65267">
        <ele>310.97220302148</ele>
        <time>2021-10-06T10:35:55.941Z</time>
      </trkpt>
      <trkpt lat="45.92618" lon="4.65271">
        <ele>310.82255442871</ele>
        <time>2021-10-06T10:36:03.416Z</time>
      </trkpt>
      <trkpt lat="45.92622" lon="4.65273">
        <ele>310.68324764924</ele>
        <time>2021-10-06T10:36:10.897Z</time>
      </trkpt>
      <trkpt lat="45.92619" lon="4.65282">
        <ele>310.54788944575</ele>
        <time>2021-10-06T10:36:18.387Z</time>
      </trkpt>
      <trkpt lat="45.92611" lon="4.65295">
        <ele>310.38959942013</ele>
        <time>2021-10-06T10:36:25.893Z</time>
      </trkpt>
      <trkpt lat="45.92611" lon="4.65295">
        <ele>310.31186621817</ele>
        <time>2021-10-06T10:36:33.399Z</time>
      </trkpt>
      <trkpt lat="45.92606" lon="4.653">
        <ele>310.24286057889</ele>
        <time>2021-10-06T10:36:40.913Z</time>
      </trkpt>
      <trkpt lat="45.92602" lon="4.6529">
        <ele>310.24733766435</ele>
        <time>2021-10-06T10:36:48.438Z</time>
      </trkpt>
      <trkpt lat="45.92611" lon="4.65289">
        <ele>310.28874937041</ele>
        <time>2021-10-06T10:36:55.975Z</time>
      </trkpt>
      <trkpt lat="45.92621" lon="4.65286">
        <ele>310.35141333682</ele>
        <time>2021-10-06T10:37:03.526Z</time>
      </trkpt>
      <trkpt lat="45.92654" lon="4.65291">
        <ele>310.28858118125</ele>
        <time>2021-10-06T10:37:11.121Z</time>
      </trkpt>
      <trkpt lat="45.92637" lon="4.65283">
        <ele>310.38034914848</ele>
        <time>2021-10-06T10:37:18.740Z</time>
      </trkpt>
      <trkpt lat="45.92627" lon="4.65281">
        <ele>310.40639397543</ele>
        <time>2021-10-06T10:37:26.372Z</time>
      </trkpt>
      <trkpt lat="45.92625" lon="4.65275">
        <ele>310.37037999951</ele>
        <time>2021-10-06T10:37:34.011Z</time>
      </trkpt>
      <trkpt lat="45.92623" lon="4.65274">
        <ele>310.28567801059</ele>
        <time>2021-10-06T10:37:41.652Z</time>
      </trkpt>
      <trkpt lat="45.9263" lon="4.65275">
        <ele>310.12994678333</ele>
        <time>2021-10-06T10:37:49.303Z</time>
      </trkpt>
      <trkpt lat="45.92632" lon="4.65273">
        <ele>309.94818369569</ele>
        <time>2021-10-06T10:37:56.957Z</time>
      </trkpt>
      <trkpt lat="45.92634" lon="4.65278">
        <ele>309.7468874161</ele>
        <time>2021-10-06T10:38:04.616Z</time>
      </trkpt>
      <trkpt lat="45.92623" lon="4.65278">
        <ele>309.58434911362</ele>
        <time>2021-10-06T10:38:12.290Z</time>
      </trkpt>
      <trkpt lat="45.92621" lon="4.65273">
        <ele>309.43300782807</ele>
        <time>2021-10-06T10:38:19.969Z</time>
      </trkpt>
      <trkpt lat="45.9262" lon="4.65267">
        <ele>309.36042991627</ele>
        <time>2021-10-06T10:38:27.654Z</time>
      </trkpt>
      <trkpt lat="45.92627" lon="4.65233">
        <ele>309.35340585738</ele>
        <time>2021-10-06T10:38:35.372Z</time>
      </trkpt>
      <trkpt lat="45.9263" lon="4.65204">
        <ele>309.51061037454</ele>
        <time>2021-10-06T10:38:43.117Z</time>
      </trkpt>
      <trkpt lat="45.9263" lon="4.65178">
        <ele>309.86212091249</ele>
        <time>2021-10-06T10:38:50.887Z</time>
      </trkpt>
      <trkpt lat="45.92625" lon="4.65085">
        <ele>310.75459344063</ele>
        <time>2021-10-06T10:38:58.743Z</time>
      </trkpt>
      <trkpt lat="45.92619" lon="4.65047">
        <ele>311.7933227402</ele>
        <time>2021-10-06T10:39:06.636Z</time>
      </trkpt>
      <trkpt lat="45.92607" lon="4.64942">
        <ele>313.62722908564</ele>
        <time>2021-10-06T10:39:14.628Z</time>
      </trkpt>
      <trkpt lat="45.9259" lon="4.64884">
        <ele>314.99368025946</ele>
        <time>2021-10-06T10:39:22.678Z</time>
      </trkpt>
      <trkpt lat="45.9258" lon="4.64831">
        <ele>316.24775919986</ele>
        <time>2021-10-06T10:39:30.779Z</time>
      </trkpt>
      <trkpt lat="45.92579" lon="4.64791">
        <ele>317.60050337648</ele>
        <time>2021-10-06T10:39:38.918Z</time>
      </trkpt>
      <trkpt lat="45.92576" lon="4.64743">
        <ele>318.83637263724</ele>
        <time>2021-10-06T10:39:47.101Z</time>
      </trkpt>
      <trkpt lat="45.92573" lon="4.64722">
        <ele>319.98854110946</ele>
        <time>2021-10-06T10:39:55.304Z</time>
      </trkpt>
      <trkpt lat="45.92574" lon="4.64696">
        <ele>321.11308223986</ele>
        <time>2021-10-06T10:40:03.532Z</time>
      </trkpt>
      <trkpt lat="45.92572" lon="4.64637">
        <ele>322.38721840082</ele>
        <time>2021-10-06T10:40:11.815Z</time>
      </trkpt>
      <trkpt lat="45.92559" lon="4.64519">
        <ele>323.69661119081</ele>
        <time>2021-10-06T10:40:20.209Z</time>
      </trkpt>
      <trkpt lat="45.92544" lon="4.64454">
        <ele>324.82122428387</ele>
        <time>2021-10-06T10:40:28.667Z</time>
      </trkpt>
      <trkpt lat="45.92563" lon="4.64403">
        <ele>326.10756910964</ele>
        <time>2021-10-06T10:40:37.178Z</time>
      </trkpt>
      <trkpt lat="45.92593" lon="4.64315">
        <ele>327.50618973727</ele>
        <time>2021-10-06T10:40:45.781Z</time>
      </trkpt>
      <trkpt lat="45.92613" lon="4.64248">
        <ele>328.79128690258</ele>
        <time>2021-10-06T10:40:54.451Z</time>
      </trkpt>
      <trkpt lat="45.92621" lon="4.64209">
        <ele>330.01686286948</ele>
        <time>2021-10-06T10:41:03.159Z</time>
      </trkpt>
      <trkpt lat="45.92622" lon="4.64128">
        <ele>331.12714038591</ele>
        <time>2021-10-06T10:41:11.943Z</time>
      </trkpt>
      <trkpt lat="45.92638" lon="4.64051">
        <ele>332.05152370058</ele>
        <time>2021-10-06T10:41:20.801Z</time>
      </trkpt>
      <trkpt lat="45.92644" lon="4.64014">
        <ele>332.78236316702</ele>
        <time>2021-10-06T10:41:29.695Z</time>
      </trkpt>
      <trkpt lat="45.92646" lon="4.63991">
        <ele>333.28596062485</ele>
        <time>2021-10-06T10:41:38.610Z</time>
      </trkpt>
      <trkpt lat="45.92635" lon="4.63875">
        <ele>333.6735494655</ele>
        <time>2021-10-06T10:41:47.634Z</time>
      </trkpt>
      <trkpt lat="45.92631" lon="4.63856">
        <ele>333.69306661827</ele>
        <time>2021-10-06T10:41:56.677Z</time>
      </trkpt>
      <trkpt lat="45.92633" lon="4.63819">
        <ele>333.34726642358</ele>
        <time>2021-10-06T10:42:05.754Z</time>
      </trkpt>
      <trkpt lat="45.92632" lon="4.63801">
        <ele>333.02357254132</ele>
        <time>2021-10-06T10:42:14.848Z</time>
      </trkpt>
      <trkpt lat="45.92637" lon="4.63784">
        <ele>332.68177872105</ele>
        <time>2021-10-06T10:42:23.959Z</time>
      </trkpt>
      <trkpt lat="45.92647" lon="4.63767">
        <ele>332.38770894895</ele>
        <time>2021-10-06T10:42:33.091Z</time>
      </trkpt>
      <trkpt lat="45.92653" lon="4.63741">
        <ele>332.13980047277</ele>
        <time>2021-10-06T10:42:42.248Z</time>
      </trkpt>
      <trkpt lat="45.92656" lon="4.63711">
        <ele>331.97717136893</ele>
        <time>2021-10-06T10:42:51.434Z</time>
      </trkpt>
      <trkpt lat="45.92657" lon="4.63679">
        <ele>331.86910303867</ele>
        <time>2021-10-06T10:43:00.650Z</time>
      </trkpt>
      <trkpt lat="45.92652" lon="4.63587">
        <ele>331.88095157547</ele>
        <time>2021-10-06T10:43:09.951Z</time>
      </trkpt>
      <trkpt lat="45.92655" lon="4.63561">
        <ele>332.21043642385</ele>
        <time>2021-10-06T10:43:19.277Z</time>
      </trkpt>
      <trkpt lat="45.92672" lon="4.63467">
        <ele>332.85412115734</ele>
        <time>2021-10-06T10:43:28.693Z</time>
      </trkpt>
      <trkpt lat="45.92682" lon="4.63431">
        <ele>333.48177929657</ele>
        <time>2021-10-06T10:43:38.145Z</time>
      </trkpt>
      <trkpt lat="45.92707" lon="4.63373">
        <ele>333.99880964079</ele>
        <time>2021-10-06T10:43:47.661Z</time>
      </trkpt>
      <trkpt lat="45.92744" lon="4.63264">
        <ele>334.67613858424</ele>
        <time>2021-10-06T10:43:57.290Z</time>
      </trkpt>
      <trkpt lat="45.92741" lon="4.63255">
        <ele>335.23135285232</ele>
        <time>2021-10-06T10:44:06.928Z</time>
      </trkpt>
      <trkpt lat="45.92664" lon="4.63162">
        <ele>335.88533531764</ele>
        <time>2021-10-06T10:44:16.700Z</time>
      </trkpt>
      <trkpt lat="45.9263" lon="4.63104">
        <ele>336.40018942166</ele>
        <time>2021-10-06T10:44:26.543Z</time>
      </trkpt>
      <trkpt lat="45.9263" lon="4.63104">
        <ele>337.07447609568</ele>
        <time>2021-10-06T10:44:36.386Z</time>
      </trkpt>
      <trkpt lat="45.92562" lon="4.63016">
        <ele>338.00659140428</ele>
        <time>2021-10-06T10:44:46.351Z</time>
      </trkpt>
      <trkpt lat="45.92534" lon="4.62982">
        <ele>338.96591036554</ele>
        <time>2021-10-06T10:44:56.365Z</time>
      </trkpt>
      <trkpt lat="45.92535" lon="4.62979">
        <ele>340.10634935997</ele>
        <time>2021-10-06T10:45:06.382Z</time>
      </trkpt>
      <trkpt lat="45.92546" lon="4.6297">
        <ele>341.43074336959</ele>
        <time>2021-10-06T10:45:16.416Z</time>
      </trkpt>
      <trkpt lat="45.92557" lon="4.6295">
        <ele>343.0095990106</ele>
        <time>2021-10-06T10:45:26.474Z</time>
      </trkpt>
      <trkpt lat="45.9258" lon="4.62884">
        <ele>345.13776046798</ele>
        <time>2021-10-06T10:45:36.600Z</time>
      </trkpt>
      <trkpt lat="45.92643" lon="4.6275">
        <ele>347.55051211588</ele>
        <time>2021-10-06T10:45:46.877Z</time>
      </trkpt>
      <trkpt lat="45.92644" lon="4.62739">
        <ele>349.29746535675</ele>
        <time>2021-10-06T10:45:57.164Z</time>
      </trkpt>
      <trkpt lat="45.92608" lon="4.62712">
        <ele>350.78532476997</ele>
        <time>2021-10-06T10:46:07.505Z</time>
      </trkpt>
      <trkpt lat="45.92596" lon="4.62701">
        <ele>352.10332086824</ele>
        <time>2021-10-06T10:46:17.865Z</time>
      </trkpt>
      <trkpt lat="45.92564" lon="4.62678">
        <ele>353.24792724938</ele>
        <time>2021-10-06T10:46:28.273Z</time>
      </trkpt>
      <trkpt lat="45.92539" lon="4.62651">
        <ele>354.24623701402</ele>
        <time>2021-10-06T10:46:38.723Z</time>
      </trkpt>
      <trkpt lat="45.92526" lon="4.62643">
        <ele>354.88132051813</ele>
        <time>2021-10-06T10:46:49.192Z</time>
      </trkpt>
      <trkpt lat="45.92528" lon="4.62643">
        <ele>355.2827928459</ele>
        <time>2021-10-06T10:46:59.663Z</time>
      </trkpt>
      <trkpt lat="45.92525" lon="4.62645">
        <ele>355.50785021154</ele>
        <time>2021-10-06T10:47:10.139Z</time>
      </trkpt>
      <trkpt lat="45.92528" lon="4.62627">
        <ele>355.62565932337</ele>
        <time>2021-10-06T10:47:20.632Z</time>
      </trkpt>
      <trkpt lat="45.92522" lon="4.62606">
        <ele>355.71685406587</ele>
        <time>2021-10-06T10:47:31.146Z</time>
      </trkpt>
      <trkpt lat="45.92519" lon="4.62603">
        <ele>355.77035428849</ele>
        <time>2021-10-06T10:47:41.665Z</time>
      </trkpt>
      <trkpt lat="45.92514" lon="4.62602">
        <ele>355.85638698984</ele>
        <time>2021-10-06T10:47:52.191Z</time>
      </trkpt>
      <trkpt lat="45.92508" lon="4.62599">
        <ele>356.04531459275</ele>
        <time>2021-10-06T10:48:02.725Z</time>
      </trkpt>
      <trkpt lat="45.92471" lon="4.6257">
        <ele>356.4577579312</ele>
        <time>2021-10-06T10:48:13.315Z</time>
      </trkpt>
      <trkpt lat="45.92456" lon="4.62564">
        <ele>356.96132563545</ele>
        <time>2021-10-06T10:48:23.926Z</time>
      </trkpt>
      <trkpt lat="45.92444" lon="4.62574">
        <ele>357.63047052027</ele>
        <time>2021-10-06T10:48:34.556Z</time>
      </trkpt>
      <trkpt lat="45.92436" lon="4.62556">
        <ele>358.51632356922</ele>
        <time>2021-10-06T10:48:45.206Z</time>
      </trkpt>
      <trkpt lat="45.92436" lon="4.62552">
        <ele>359.63093182928</ele>
        <time>2021-10-06T10:48:55.859Z</time>
      </trkpt>
      <trkpt lat="45.92443" lon="4.62537">
        <ele>360.96531486952</ele>
        <time>2021-10-06T10:49:06.529Z</time>
      </trkpt>
      <trkpt lat="45.92503" lon="4.62467">
        <ele>362.57393279973</ele>
        <time>2021-10-06T10:49:17.302Z</time>
      </trkpt>
      <trkpt lat="45.92542" lon="4.62406">
        <ele>364.55525432443</ele>
        <time>2021-10-06T10:49:28.152Z</time>
      </trkpt>
      <trkpt lat="45.92569" lon="4.62347">
        <ele>366.49141021404</ele>
        <time>2021-10-06T10:49:39.068Z</time>
      </trkpt>
      <trkpt lat="45.92587" lon="4.62318">
        <ele>367.94770510264</ele>
        <time>2021-10-06T10:49:50.020Z</time>
      </trkpt>
      <trkpt lat="45.92609" lon="4.6225">
        <ele>368.99401991518</ele>
        <time>2021-10-06T10:50:01.042Z</time>
      </trkpt>
      <trkpt lat="45.92607" lon="4.62245">
        <ele>369.73235344645</ele>
        <time>2021-10-06T10:50:12.069Z</time>
      </trkpt>
      <trkpt lat="45.92569" lon="4.62219">
        <ele>369.96963890076</ele>
        <time>2021-10-06T10:50:23.152Z</time>
      </trkpt>
      <trkpt lat="45.92565" lon="4.62213">
        <ele>370.10827380834</ele>
        <time>2021-10-06T10:50:34.243Z</time>
      </trkpt>
      <trkpt lat="45.92566" lon="4.62201">
        <ele>370.03964335362</ele>
        <time>2021-10-06T10:50:45.345Z</time>
      </trkpt>
      <trkpt lat="45.92576" lon="4.62175">
        <ele>369.8348865917</ele>
        <time>2021-10-06T10:50:56.475Z</time>
      </trkpt>
      <trkpt lat="45.92582" lon="4.62151">
        <ele>369.42285378224</ele>
        <time>2021-10-06T10:51:07.629Z</time>
      </trkpt>
      <trkpt lat="45.92583" lon="4.62138">
        <ele>368.90710772456</ele>
        <time>2021-10-06T10:51:18.795Z</time>
      </trkpt>
      <trkpt lat="45.9258" lon="4.62132">
        <ele>368.32739067697</ele>
        <time>2021-10-06T10:51:29.968Z</time>
      </trkpt>
      <trkpt lat="45.92575" lon="4.62127">
        <ele>367.70931703232</ele>
        <time>2021-10-06T10:51:41.149Z</time>
      </trkpt>
      <trkpt lat="45.92549" lon="4.62108">
        <ele>366.98078912962</ele>
        <time>2021-10-06T10:51:52.369Z</time>
      </trkpt>
      <trkpt lat="45.92543" lon="4.62101">
        <ele>366.40625953005</ele>
        <time>2021-10-06T10:52:03.599Z</time>
      </trkpt>
      <trkpt lat="45.92543" lon="4.6209">
        <ele>365.93223227076</ele>
        <time>2021-10-06T10:52:14.839Z</time>
      </trkpt>
      <trkpt lat="45.92552" lon="4.62072">
        <ele>365.63607016469</ele>
        <time>2021-10-06T10:52:26.100Z</time>
      </trkpt>
      <trkpt lat="45.92554" lon="4.62063">
        <ele>365.34767113366</ele>
        <time>2021-10-06T10:52:37.370Z</time>
      </trkpt>
      <trkpt lat="45.92555" lon="4.62054">
        <ele>365.08486620934</ele>
        <time>2021-10-06T10:52:48.648Z</time>
      </trkpt>
      <trkpt lat="45.92562" lon="4.62024">
        <ele>364.87141688586</ele>
        <time>2021-10-06T10:52:59.956Z</time>
      </trkpt>
      <trkpt lat="45.92562" lon="4.62014">
        <ele>364.58210039646</ele>
        <time>2021-10-06T10:53:11.273Z</time>
      </trkpt>
      <trkpt lat="45.92555" lon="4.61999">
        <ele>364.21003403948</ele>
        <time>2021-10-06T10:53:22.607Z</time>
      </trkpt>
      <trkpt lat="45.92551" lon="4.61993">
        <ele>363.84664581759</ele>
        <time>2021-10-06T10:53:33.949Z</time>
      </trkpt>
      <trkpt lat="45.92536" lon="4.61965">
        <ele>363.39114657103</ele>
        <time>2021-10-06T10:53:45.323Z</time>
      </trkpt>
      <trkpt lat="45.92531" lon="4.61946">
        <ele>363.06729375817</ele>
        <time>2021-10-06T10:53:56.716Z</time>
      </trkpt>
      <trkpt lat="45.92532" lon="4.61939">
        <ele>362.94666837031</ele>
        <time>2021-10-06T10:54:08.116Z</time>
      </trkpt>
      <trkpt lat="45.92542" lon="4.61925">
        <ele>363.01903928225</ele>
        <time>2021-10-06T10:54:19.535Z</time>
      </trkpt>
      <trkpt lat="45.92548" lon="4.61912">
        <ele>363.17857287585</ele>
        <time>2021-10-06T10:54:30.968Z</time>
      </trkpt>
      <trkpt lat="45.92555" lon="4.61904">
        <ele>363.4698287766</ele>
        <time>2021-10-06T10:54:42.413Z</time>
      </trkpt>
      <trkpt lat="45.92557" lon="4.61896">
        <ele>363.85767014191</ele>
        <time>2021-10-06T10:54:53.866Z</time>
      </trkpt>
      <trkpt lat="45.92544" lon="4.61841">
        <ele>364.42999737187</ele>
        <time>2021-10-06T10:55:05.373Z</time>
      </trkpt>
      <trkpt lat="45.92542" lon="4.61824">
        <ele>365.00782991314</ele>
        <time>2021-10-06T10:55:16.896Z</time>
      </trkpt>
      <trkpt lat="45.92547" lon="4.61817">
        <ele>365.63264683572</ele>
        <time>2021-10-06T10:55:28.428Z</time>
      </trkpt>
      <trkpt lat="45.92563" lon="4.61808">
        <ele>366.31739497537</ele>
        <time>2021-10-06T10:55:39.983Z</time>
      </trkpt>
      <trkpt lat="45.92571" lon="4.61799">
        <ele>367.05816223855</ele>
        <time>2021-10-06T10:55:51.552Z</time>
      </trkpt>
      <trkpt lat="45.92579" lon="4.6178">
        <ele>367.95191433569</ele>
        <time>2021-10-06T10:56:03.142Z</time>
      </trkpt>
      <trkpt lat="45.92586" lon="4.61748">
        <ele>368.9566545025</ele>
        <time>2021-10-06T10:56:14.763Z</time>
      </trkpt>
      <trkpt lat="45.92587" lon="4.61736">
        <ele>370.23647630064</ele>
        <time>2021-10-06T10:56:26.395Z</time>
      </trkpt>
      <trkpt lat="45.92582" lon="4.61677">
        <ele>372.04400431818</ele>
        <time>2021-10-06T10:56:38.082Z</time>
      </trkpt>
      <trkpt lat="45.92579" lon="4.61627">
        <ele>374.49388016767</ele>
        <time>2021-10-06T10:56:49.816Z</time>
      </trkpt>
      <trkpt lat="45.92574" lon="4.61612">
        <ele>376.97949263879</ele>
        <time>2021-10-06T10:57:01.566Z</time>
      </trkpt>
      <trkpt lat="45.92541" lon="4.61553">
        <ele>379.93689829667</ele>
        <time>2021-10-06T10:57:13.386Z</time>
      </trkpt>
      <trkpt lat="45.9252" lon="4.61508">
        <ele>382.89472534462</ele>
        <time>2021-10-06T10:57:25.256Z</time>
      </trkpt>
      <trkpt lat="45.92513" lon="4.6148">
        <ele>386.27032814753</ele>
        <time>2021-10-06T10:57:37.154Z</time>
      </trkpt>
      <trkpt lat="45.92509" lon="4.61455">
        <ele>390.09563226233</ele>
        <time>2021-10-06T10:57:49.076Z</time>
      </trkpt>
      <trkpt lat="45.92509" lon="4.61432">
        <ele>394.08958617742</ele>
        <time>2021-10-06T10:58:01.019Z</time>
      </trkpt>
      <trkpt lat="45.92511" lon="4.61356">
        <ele>398.45955840442</ele>
        <time>2021-10-06T10:58:13.033Z</time>
      </trkpt>
      <trkpt lat="45.92498" lon="4.61243">
        <ele>402.24674570632</ele>
        <time>2021-10-06T10:58:25.154Z</time>
      </trkpt>
      <trkpt lat="45.92496" lon="4.61195">
        <ele>403.81855198253</ele>
        <time>2021-10-06T10:58:37.320Z</time>
      </trkpt>
      <trkpt lat="45.92499" lon="4.61195">
        <ele>402.6407239918</ele>
        <time>2021-10-06T10:58:49.490Z</time>
      </trkpt>
      <trkpt lat="45.925" lon="4.61245">
        <ele>400.80454628136</ele>
        <time>2021-10-06T10:59:01.706Z</time>
      </trkpt>
      <trkpt lat="45.92512" lon="4.61341">
        <ele>398.54070536191</ele>
        <time>2021-10-06T10:59:14.013Z</time>
      </trkpt>
      <trkpt lat="45.92512" lon="4.61391">
        <ele>396.51399654179</ele>
        <time>2021-10-06T10:59:26.366Z</time>
      </trkpt>
      <trkpt lat="45.92509" lon="4.61424">
        <ele>394.51801439229</ele>
        <time>2021-10-06T10:59:38.750Z</time>
      </trkpt>
      <trkpt lat="45.9251" lon="4.61466">
        <ele>392.42647083011</ele>
        <time>2021-10-06T10:59:51.174Z</time>
      </trkpt>
      <trkpt lat="45.9252" lon="4.61509">
        <ele>390.22803728094</ele>
        <time>2021-10-06T11:00:03.640Z</time>
      </trkpt>
      <trkpt lat="45.92556" lon="4.61578">
        <ele>387.86730008536</ele>
        <time>2021-10-06T11:00:16.186Z</time>
      </trkpt>
      <trkpt lat="45.92573" lon="4.6161">
        <ele>385.24361848565</ele>
        <time>2021-10-06T11:00:28.769Z</time>
      </trkpt>
      <trkpt lat="45.9258" lon="4.61627">
        <ele>382.62457321148</ele>
        <time>2021-10-06T11:00:41.371Z</time>
      </trkpt>
      <trkpt lat="45.92582" lon="4.61674">
        <ele>379.79861495092</ele>
        <time>2021-10-06T11:00:54.017Z</time>
      </trkpt>
      <trkpt lat="45.92587" lon="4.61727">
        <ele>377.47140717726</ele>
        <time>2021-10-06T11:01:06.712Z</time>
      </trkpt>
      <trkpt lat="45.92587" lon="4.61742">
        <ele>375.45265049555</ele>
        <time>2021-10-06T11:01:19.421Z</time>
      </trkpt>
      <trkpt lat="45.92576" lon="4.61781">
        <ele>373.32781398903</ele>
        <time>2021-10-06T11:01:32.169Z</time>
      </trkpt>
      <trkpt lat="45.92572" lon="4.61808">
        <ele>371.04259195288</ele>
        <time>2021-10-06T11:01:44.943Z</time>
      </trkpt>
      <trkpt lat="45.92554" lon="4.61823">
        <ele>368.78223723973</ele>
        <time>2021-10-06T11:01:57.745Z</time>
      </trkpt>
      <trkpt lat="45.92518" lon="4.61842">
        <ele>366.46493924867</ele>
        <time>2021-10-06T11:02:10.598Z</time>
      </trkpt>
      <trkpt lat="45.92495" lon="4.61858">
        <ele>364.54698672179</ele>
        <time>2021-10-06T11:02:23.485Z</time>
      </trkpt>
      <trkpt lat="45.92493" lon="4.61869">
        <ele>363.10447326341</ele>
        <time>2021-10-06T11:02:36.383Z</time>
      </trkpt>
      <trkpt lat="45.92509" lon="4.61907">
        <ele>361.93082995941</ele>
        <time>2021-10-06T11:02:49.322Z</time>
      </trkpt>
      <trkpt lat="45.92535" lon="4.61959">
        <ele>361.6414589149</ele>
        <time>2021-10-06T11:03:02.321Z</time>
      </trkpt>
    </trkseg>
  </trk>
</gpx>